Time;durP1;ratioP1;P1;durP2;ratioP2;P2;SDS_P1;SDS_P2;PMS_P1;PMS_P2;Temp;Humidity;BMP_temperature;BMP_pressure;BME280_temperature;BME280_humidity;BME280_pressure;Samples;Min_cycle;Max_cycle;Signal;HPM_P1;HPM_P2
2021/04/14 00:01:10;;;;;;;14.30;3.10;;;;;;;0.19;92.56;102999.75;5015319;28;20126;-77
2021/04/14 00:03:36;;;;;;;14.05;3.03;;;;;;;0.11;93.40;102998.16;5025985;28;20199;-77
2021/04/14 00:06:03;;;;;;;11.93;2.35;;;;;;;0.08;92.84;102995.66;5054964;28;20535;-76
2021/04/14 00:08:30;;;;;;;9.13;2.17;;;;;;;0.03;92.74;102997.44;5041696;28;20049;-77
2021/04/14 00:10:56;;;;;;;23.27;3.35;;;;;;;-0.03;92.96;102996.63;5017063;28;20152;-76
2021/04/14 00:13:43;;;;;;;14.50;2.45;;;;;;;-0.08;92.42;102993.25;5032800;28;20029;-77
2021/04/14 00:16:21;;;;;;;9.95;2.35;;;;;;;-0.10;92.62;102997.59;5047039;28;20040;-77
2021/04/14 00:18:47;;;;;;;10.55;2.53;;;;;;;-0.07;92.51;102994.97;5079944;28;20049;-77
2021/04/14 00:21:13;;;;;;;11.98;2.75;;;;;;;-0.03;92.74;102993.22;5030557;28;20033;-77
2021/04/14 00:23:55;;;;;;;12.88;3.10;;;;;;;0.02;93.04;102994.00;5029622;28;20044;-77
2021/04/14 00:26:21;;;;;;;19.77;3.00;;;;;;;-0.03;93.29;102993.22;5010895;28;20041;-78
2021/04/14 00:28:47;;;;;;;16.38;2.58;;;;;;;-0.03;93.76;102994.06;5054309;28;20177;-76
2021/04/14 00:31:14;;;;;;;11.02;2.78;;;;;;;-0.02;93.17;102990.63;5035256;28;20060;-77
2021/04/14 00:33:41;;;;;;;17.05;2.78;;;;;;;0.01;93.19;102992.28;5065217;28;20690;-77
2021/04/14 00:36:08;;;;;;;15.95;2.58;;;;;;;0.03;93.24;102990.53;5049833;28;20051;-77
2021/04/14 00:38:33;;;;;;;7.70;2.40;;;;;;;0.03;93.50;102994.84;5053090;28;20045;-77
2021/04/14 00:41:04;;;;;;;13.02;2.78;;;;;;;0.03;92.94;102992.28;5043537;28;20079;-78
2021/04/14 00:43:35;;;;;;;13.82;2.83;;;;;;;0.07;93.14;102993.94;5047395;28;20107;-77
2021/04/14 00:46:01;;;;;;;13.40;2.42;;;;;;;0.08;92.92;102995.66;5023787;28;20053;-77
2021/04/14 00:48:26;;;;;;;14.82;2.60;;;;;;;0.11;92.84;102996.41;5032608;28;20033;-77
2021/04/14 00:50:53;;;;;;;19.05;2.83;;;;;;;0.15;93.22;103003.25;5038044;28;20449;-76
2021/04/14 00:53:19;;;;;;;10.70;2.40;;;;;;;0.19;93.30;102998.91;5057988;28;20033;-76
2021/04/14 00:55:46;;;;;;;14.52;2.45;;;;;;;0.21;93.32;103002.31;5047102;28;20128;-77
2021/04/14 00:58:12;;;;;;;13.15;2.38;;;;;;;0.20;93.27;103003.19;5011294;28;20049;-77
2021/04/14 01:00:52;;;;;;;13.13;2.53;;;;;;;0.16;93.64;103004.09;5062524;28;20146;-77
2021/04/14 01:03:21;;;;;;;10.80;1.98;;;;;;;0.16;93.30;103004.94;5012079;28;20376;-76
2021/04/14 01:05:49;;;;;;;21.40;3.13;;;;;;;0.18;93.44;103000.63;5061502;28;20403;-77
2021/04/14 01:08:15;;;;;;;16.42;3.15;;;;;;;0.13;93.26;103001.56;5029712;28;20122;-77
2021/04/14 01:10:41;;;;;;;12.45;2.00;;;;;;;0.06;93.20;103000.81;5043557;28;20116;-76
2021/04/14 01:13:07;;;;;;;14.50;2.17;;;;;;;0.05;93.38;103004.25;5064049;28;20054;-76
2021/04/14 01:15:42;;;;;;;14.43;2.47;;;;;;;0.05;93.22;103006.00;5051716;28;20094;-75
2021/04/14 01:18:14;;;;;;;15.93;2.38;;;;;;;-0.03;93.03;103006.97;5048161;28;21000;-76
2021/04/14 01:20:40;;;;;;;;;;;;;;;-0.05;93.22;103007.88;5066401;28;20052;-77
2021/04/14 01:23:06;;;;;;;11.63;1.90;;;;;;;-0.12;93.46;103004.50;5046794;28;19916;-75
2021/04/14 01:25:35;;;;;;;16.85;2.65;;;;;;;-0.11;93.94;103002.81;5038052;28;20048;-77
2021/04/14 01:28:08;;;;;;;21.05;2.47;;;;;;;-0.13;94.00;103005.41;5023979;28;20049;-79
2021/04/14 01:30:34;;;;;;;15.98;2.58;;;;;;;-0.13;93.89;103010.56;5040087;28;20040;-77
2021/04/14 01:33:00;;;;;;;23.92;3.42;;;;;;;-0.03;93.80;102999.22;5059945;28;20041;-77
2021/04/14 01:35:27;;;;;;;14.68;2.40;;;;;;;-0.05;93.89;103000.97;5030669;28;20041;-76
2021/04/14 01:37:54;;;;;;;15.27;2.75;;;;;;;-0.07;94.27;103009.63;5045806;28;20127;-79
2021/04/14 01:40:21;;;;;;;17.58;2.90;;;;;;;-0.02;94.16;103007.81;5035777;28;20045;-79
2021/04/14 01:42:47;;;;;;;17.55;3.28;;;;;;;-0.11;94.25;103000.22;5024890;28;20040;-76
2021/04/14 01:45:15;;;;;;;15.15;2.35;;;;;;;-0.18;94.37;102990.88;5009470;28;20045;-77
2021/04/14 01:47:57;;;;;;;9.73;3.00;;;;;;;-0.31;94.90;103003.06;5012325;28;20037;-76
2021/04/14 01:50:23;;;;;;;18.08;3.20;;;;;;;-0.34;94.84;102995.38;5009087;28;20049;-75
2021/04/14 01:52:50;;;;;;;10.65;2.63;;;;;;;-0.37;94.64;102993.69;5031695;28;20048;-76
2021/04/14 01:55:16;;;;;;;16.65;3.22;;;;;;;-0.45;94.39;103003.25;5003178;28;20068;-77
2021/04/14 01:57:44;;;;;;;20.85;3.55;;;;;;;-0.48;94.22;102996.41;5005635;28;20048;-78
2021/04/14 02:00:19;;;;;;;15.43;3.40;;;;;;;-0.52;94.38;102999.91;5041516;28;20041;-77
2021/04/14 02:02:45;;;;;;;14.48;3.85;;;;;;;-0.51;94.74;102991.31;5067305;28;20041;-77
2021/04/14 02:05:11;;;;;;;15.40;3.20;;;;;;;-0.51;94.72;102999.03;5030238;28;20107;-76
2021/04/14 02:07:37;;;;;;;16.75;3.53;;;;;;;-0.55;94.48;102994.78;5047632;28;20041;-77
2021/04/14 02:10:05;;;;;;;13.95;3.28;;;;;;;-0.61;93.93;102989.69;5056943;28;20055;-79
2021/04/14 02:12:31;;;;;;;12.82;4.07;;;;;;;-0.54;94.39;102995.66;5013439;28;20033;-77
2021/04/14 02:14:56;;;;;;;17.70;3.97;;;;;;;-0.57;94.67;102993.94;5045392;28;20501;-76
2021/04/14 02:17:22;;;;;;;21.23;4.25;;;;;;;-0.57;94.75;103000.81;5046872;28;20052;-77
2021/04/14 02:19:47;;;;;;;16.23;4.22;;;;;;;-0.48;94.99;102988.66;5031852;28;20179;-76
2021/04/14 02:22:13;;;;;;;16.20;4.65;;;;;;;-0.49;95.30;102996.41;5046052;28;20788;-77
2021/04/14 02:24:38;;;;;;;19.58;4.25;;;;;;;-0.50;95.05;102987.00;5012083;28;20045;-76
2021/04/14 02:27:04;;;;;;;15.50;4.85;;;;;;;-0.59;95.01;102991.38;5063705;28;20056;-77
2021/04/14 02:29:29;;;;;;;16.30;3.97;;;;;;;-0.64;94.63;102980.28;5020914;28;20153;-75
2021/04/14 02:31:55;;;;;;;17.55;4.32;;;;;;;-0.64;94.45;102995.75;5072158;28;20068;-77
2021/04/14 02:34:20;;;;;;;18.95;4.63;;;;;;;-0.67;94.38;102987.22;5010496;28;20098;-75
2021/04/14 02:36:58;;;;;;;14.77;3.97;;;;;;;-0.71;94.26;102988.97;5015451;28;20051;-76
2021/04/14 02:39:23;;;;;;;18.75;4.32;;;;;;;-0.74;94.41;102988.16;5039317;28;20040;-76
2021/04/14 02:41:49;;;;;;;13.50;3.78;;;;;;;-0.69;94.81;102979.50;5033135;28;20037;-77
2021/04/14 02:44:15;;;;;;;15.63;4.60;;;;;;;-0.68;95.25;102990.63;5022455;28;20044;-77
2021/04/14 02:46:41;;;;;;;20.17;4.00;;;;;;;-0.74;95.44;102978.69;5058484;28;20048;-77
2021/04/14 02:49:06;;;;;;;16.85;4.30;;;;;;;-0.72;95.77;102981.25;5041130;28;20125;-76
2021/04/14 02:51:52;;;;;;;17.77;4.30;;;;;;;-0.71;96.25;102977.81;5045820;28;20045;-75
2021/04/14 02:54:19;;;;;;;21.85;3.90;;;;;;;-0.70;96.25;102977.75;5010678;28;20044;-76
2021/04/14 02:56:45;;;;;;;19.30;3.97;;;;;;;-0.77;96.20;102981.31;4999136;28;20135;-77
2021/04/14 02:59:10;;;;;;;25.02;4.78;;;;;;;-0.80;96.30;102974.44;5041234;28;20697;-76
2021/04/14 03:01:36;;;;;;;22.02;4.13;;;;;;;-0.90;96.55;102972.88;5008007;28;20080;-78
2021/04/14 03:04:02;;;;;;;18.00;4.32;;;;;;;-0.97;96.55;102976.38;5042238;28;20053;-78
2021/04/14 03:06:28;;;;;;;20.25;4.65;;;;;;;-0.95;96.91;102971.22;5042192;28;20099;-77
2021/04/14 03:08:53;;;;;;;16.15;3.72;;;;;;;-0.87;97.15;102967.66;5048828;28;20033;-76
2021/04/14 03:11:19;;;;;;;18.90;4.20;;;;;;;-0.86;97.29;102974.53;5049436;28;20560;-77
2021/04/14 03:13:45;;;;;;;22.38;4.20;;;;;;;-0.91;97.44;102968.56;5025122;28;20568;-77
2021/04/14 03:16:11;;;;;;;15.63;3.90;;;;;;;-0.94;97.37;102970.31;5024260;28;20045;-77
2021/04/14 03:18:36;;;;;;;15.43;3.90;;;;;;;-0.99;96.94;102973.81;5024687;28;20036;-77
2021/04/14 03:21:02;;;;;;;16.45;4.07;;;;;;;-0.99;96.78;102978.13;5025021;28;20061;-77
2021/04/14 03:23:28;;;;;;;14.25;4.03;;;;;;;-0.99;96.81;102972.97;5025124;28;20048;-76
2021/04/14 03:25:54;;;;;;;18.33;4.05;;;;;;;-1.06;96.44;102969.59;5039898;28;20235;-77
2021/04/14 03:28:19;;;;;;;18.95;4.22;;;;;;;-1.04;96.48;102970.44;5057543;28;20056;-76
2021/04/14 03:30:45;;;;;;;16.05;3.95;;;;;;;-1.11;96.29;102962.78;5002925;28;20490;-76
2021/04/14 03:33:12;;;;;;;16.08;4.03;;;;;;;-1.09;96.32;102972.22;5027022;28;20044;-75
2021/04/14 03:35:38;;;;;;;16.42;4.13;;;;;;;-1.13;96.25;102961.94;5043994;28;20170;-77
2021/04/14 03:38:03;;;;;;;15.00;5.22;;;;;;;-1.08;96.00;102967.91;5036676;28;20072;-75
2021/04/14 03:40:30;;;;;;;13.23;3.55;;;;;;;-1.15;96.06;102971.41;5025537;28;20139;-76
2021/04/14 03:42:57;;;;;;;19.67;3.90;;;;;;;-1.15;95.98;102968.84;5040950;28;20045;-76
2021/04/14 03:45:32;;;;;;;18.90;4.10;;;;;;;-1.13;95.97;102970.56;5059034;28;20075;-75
2021/04/14 03:47:58;;;;;;;10.80;3.90;;;;;;;-1.12;95.80;102967.09;5042428;28;20037;-77
2021/04/14 03:50:24;;;;;;;10.70;4.18;;;;;;;-1.15;95.71;102969.69;5024699;28;20115;-77
2021/04/14 03:52:50;;;;;;;15.15;3.83;;;;;;;-1.15;95.67;102968.84;5026072;28;20072;-77
2021/04/14 03:55:20;;;;;;;16.58;4.45;;;;;;;-1.20;95.55;102967.19;5055107;28;20633;-76
2021/04/14 03:57:45;;;;;;;17.08;4.05;;;;;;;-1.24;95.67;102968.09;5025235;28;20515;-75
2021/04/14 04:00:12;;;;;;;9.68;3.47;;;;;;;-1.24;95.45;102973.22;5060770;28;20051;-79
2021/04/14 04:02:38;;;;;;;13.50;3.25;;;;;;;-1.24;95.43;102973.22;5033692;28;20059;-77
2021/04/14 04:05:04;;;;;;;13.25;3.47;;;;;;;-1.21;95.43;102972.34;5066121;28;20044;-76
2021/04/14 04:07:29;;;;;;;15.13;3.90;;;;;;;-1.21;95.40;102973.19;5067256;28;20131;-76
2021/04/14 04:09:55;;;;;;;12.48;3.78;;;;;;;-1.20;95.55;102967.19;5028118;28;20040;-76
2021/04/14 04:12:20;;;;;;;12.63;3.75;;;;;;;-1.12;95.54;102968.81;5029574;28;20136;-78
2021/04/14 04:14:48;;;;;;;12.05;4.00;;;;;;;-1.07;96.15;102973.06;5041845;28;20044;-76
2021/04/14 04:17:16;;;;;;;17.35;4.10;;;;;;;-1.10;96.07;102978.22;5062119;28;20056;-76
2021/04/14 04:19:41;;;;;;;13.10;3.50;;;;;;;-1.09;95.66;102986.81;5030574;28;20037;-78
2021/04/14 04:22:08;;;;;;;13.48;3.67;;;;;;;-1.09;95.87;102984.22;5045515;28;20041;-76
2021/04/14 04:24:34;;;;;;;15.45;3.88;;;;;;;-1.09;95.69;102981.66;5028809;28;20048;-76
2021/04/14 04:26:59;;;;;;;18.25;3.92;;;;;;;-1.09;96.01;102976.50;5027637;28;20048;-76
2021/04/14 04:29:25;;;;;;;12.88;3.63;;;;;;;-1.09;96.36;102981.66;5028662;28;20045;-75
2021/04/14 04:31:51;;;;;;;16.92;3.97;;;;;;;-0.93;96.90;102984.94;5035532;28;20042;-75
2021/04/14 04:34:16;;;;;;;13.45;4.40;;;;;;;-0.90;96.59;102983.19;5011702;28;20076;-75
2021/04/14 04:36:42;;;;;;;14.52;4.30;;;;;;;-0.85;96.99;102986.56;5048538;28;20072;-77
2021/04/14 04:39:07;;;;;;;12.02;3.50;;;;;;;-0.80;96.95;102992.50;5037312;28;20501;-75
2021/04/14 04:41:33;;;;;;;15.15;4.20;;;;;;;-0.80;96.78;102996.81;5038353;28;20168;-77
2021/04/14 04:43:59;;;;;;;17.60;4.10;;;;;;;-0.78;96.55;102997.63;5044123;28;20518;-76
2021/04/14 04:46:25;;;;;;;16.20;3.95;;;;;;;-0.67;96.35;103000.09;5011426;28;20053;-77
2021/04/14 04:48:50;;;;;;;10.30;3.63;;;;;;;-0.67;96.44;102994.94;5032943;28;20077;-76
2021/04/14 04:51:16;;;;;;;12.05;4.10;;;;;;;-0.69;96.45;102991.53;5063381;28;20041;-75
2021/04/14 04:53:41;;;;;;;15.07;3.95;;;;;;;-0.73;96.86;102993.28;5044973;28;20045;-75
2021/04/14 04:56:07;;;;;;;18.63;4.40;;;;;;;-0.72;96.79;102992.41;5037014;28;20705;-74
2021/04/14 04:58:32;;;;;;;8.27;3.45;;;;;;;-0.76;96.48;103001.03;5049971;28;20033;-76
2021/04/14 05:00:58;;;;;;;16.63;4.05;;;;;;;-0.80;96.61;103005.38;5045079;28;20041;-75
2021/04/14 05:03:28;;;;;;;13.65;4.32;;;;;;;-0.81;96.76;103006.25;5022460;28;20542;-77
2021/04/14 05:06:00;;;;;;;11.93;4.05;;;;;;;-0.73;96.94;103010.47;5012707;28;20044;-76
2021/04/14 05:08:33;;;;;;;13.02;3.95;;;;;;;-0.61;96.93;103007.75;5020748;28;21184;-76
2021/04/14 05:10:58;;;;;;;13.90;4.60;;;;;;;-0.48;97.05;103004.13;5022936;28;20160;-76
2021/04/14 05:13:27;;;;;;;17.27;4.38;;;;;;;-0.39;96.86;103013.50;5011446;28;20041;-77
2021/04/14 05:15:52;;;;;;;14.55;4.10;;;;;;;-0.32;96.85;103011.66;5000481;28;20434;-76
2021/04/14 05:18:19;;;;;;;13.82;4.40;;;;;;;-0.23;96.95;103001.22;5067139;28;20044;-77
2021/04/14 05:20:45;;;;;;;14.80;4.65;;;;;;;-0.12;96.62;103014.81;5028159;28;20082;-76
2021/04/14 05:23:22;;;;;;;19.90;4.30;;;;;;;-0.06;96.67;103019.03;5035694;28;20519;-77
2021/04/14 05:25:47;;;;;;;12.60;3.60;;;;;;;-0.01;96.43;103010.38;5009140;28;20072;-77
2021/04/14 05:28:24;;;;;;;17.65;4.10;;;;;;;0.16;96.33;103017.00;5042559;28;20612;-76
2021/04/14 05:30:50;;;;;;;15.25;3.80;;;;;;;0.36;96.19;103025.31;5029841;28;20065;-78
2021/04/14 05:33:16;;;;;;;22.35;4.20;;;;;;;0.58;95.66;103024.94;5027942;28;20506;-77
2021/04/14 05:35:53;;;;;;;12.02;3.90;;;;;;;0.92;94.56;103032.09;5046135;28;20168;-76
2021/04/14 05:38:25;;;;;;;21.23;3.95;;;;;;;1.06;94.08;103024.09;5025288;28;20033;-77
2021/04/14 05:40:51;;;;;;;11.98;4.07;;;;;;;1.23;92.65;103031.53;5071287;28;20483;-77
2021/04/14 05:43:30;;;;;;;24.00;4.70;;;;;;;1.31;93.21;103027.91;5037894;28;20042;-76
2021/04/14 05:46:01;;;;;;;12.03;4.30;;;;;;;1.60;91.46;103023.91;5027404;28;20041;-76
2021/04/14 05:48:28;;;;;;;13.18;3.58;;;;;;;1.65;91.06;103039.31;5044348;28;20285;-76
2021/04/14 05:50:55;;;;;;;15.20;3.78;;;;;;;1.72;90.50;103033.13;5010708;28;20052;-78
2021/04/14 05:53:27;;;;;;;19.15;4.18;;;;;;;1.62;90.78;103041.94;5041285;28;20139;-77
2021/04/14 05:55:58;;;;;;;12.30;3.55;;;;;;;1.49;91.44;103034.44;5048617;28;20082;-76
2021/04/14 05:58:23;;;;;;;19.40;3.45;;;;;;;1.44;91.18;103043.19;5062586;28;20075;-77
2021/04/14 06:00:49;;;;;;;11.73;4.10;;;;;;;1.33;91.07;103044.25;5064937;28;20041;-77
2021/04/14 06:03:14;;;;;;;16.65;4.63;;;;;;;1.17;92.21;103053.19;5033147;28;20132;-77
2021/04/14 06:05:40;;;;;;;14.82;3.80;;;;;;;1.28;91.50;103047.78;5010013;28;20160;-74
2021/04/14 06:08:05;;;;;;;12.10;3.60;;;;;;;1.35;92.82;103054.56;4999204;28;20037;-76
2021/04/14 06:10:31;;;;;;;15.27;4.20;;;;;;;1.62;92.12;103044.53;5024370;28;20060;-76
2021/04/14 06:12:56;;;;;;;14.32;4.32;;;;;;;1.68;89.94;103045.28;5026551;28;20037;-78
2021/04/14 06:15:26;;;;;;;13.75;3.85;;;;;;;1.75;90.52;103040.78;5027923;28;20140;-76
2021/04/14 06:17:52;;;;;;;17.80;4.22;;;;;;;1.98;90.75;103042.91;5045285;28;20094;-76
2021/04/14 06:20:21;;;;;;;12.55;3.83;;;;;;;2.07;90.01;103047.88;5026982;28;20040;-76
2021/04/14 06:22:47;;;;;;;10.23;3.70;;;;;;;2.27;89.91;103041.38;5058452;28;20132;-77
2021/04/14 06:25:16;;;;;;;15.73;3.08;;;;;;;2.43;87.05;103044.44;5027324;28;20119;-77
2021/04/14 06:27:56;;;;;;;13.75;3.65;;;;;;;2.48;86.35;103046.03;5026064;28;20037;-75
2021/04/14 06:30:22;;;;;;;16.17;3.38;;;;;;;2.33;87.44;103044.66;5025308;28;20053;-77
2021/04/14 06:32:49;;;;;;;14.07;3.75;;;;;;;2.37;87.81;103050.59;5012393;28;20044;-77
2021/04/14 06:35:16;;;;;;;16.63;3.60;;;;;;;2.73;87.13;103048.88;5043926;28;20495;-76
2021/04/14 06:37:43;;;;;;;16.35;3.97;;;;;;;2.94;85.42;103051.81;5020505;28;20088;-77
2021/04/14 06:40:47;;;;;;;12.98;3.78;;;;;;;3.02;86.04;103051.59;5036227;28;20487;-76
2021/04/14 06:43:42;;;;;;;15.07;3.60;;;;;;;3.08;86.02;103052.28;5025604;28;20191;-77
2021/04/14 06:46:22;;;;;;;15.90;3.50;;;;;;;3.15;85.04;103050.38;5043704;28;20048;-77
2021/04/14 06:49:02;;;;;;;8.85;3.20;;;;;;;3.35;84.88;103052.41;5026131;28;20067;-76
2021/04/14 06:51:43;;;;;;;14.98;3.88;;;;;;;3.72;82.43;103045.31;5023642;28;20045;-76
2021/04/14 06:54:38;;;;;;;14.90;2.85;;;;;;;3.74;81.43;103041.78;5023550;28;20124;-76
2021/04/14 06:57:15;;;;;;;15.68;2.88;;;;;;;3.77;81.94;103038.22;5041420;28;20056;-76
2021/04/14 06:59:45;;;;;;;12.45;2.70;;;;;;;3.87;82.85;103045.69;5027793;28;20040;-76
2021/04/14 07:02:18;;;;;;;14.55;2.40;;;;;;;4.13;79.34;103038.00;5008739;28;20049;-76
2021/04/14 07:04:50;;;;;;;6.80;1.63;;;;;;;4.37;78.87;103047.63;5041765;28;20055;-76
2021/04/14 07:07:22;;;;;;;12.65;1.92;;;;;;;4.36;78.83;103047.66;5024472;28;20048;-76
2021/04/14 07:09:49;;;;;;;10.37;2.30;;;;;;;4.20;79.89;103045.56;5025249;28;20056;-75
2021/04/14 07:12:18;;;;;;;15.50;2.72;;;;;;;4.07;78.54;103044.25;5024726;28;20298;-76
2021/04/14 07:14:46;;;;;;;16.73;2.65;;;;;;;4.01;79.69;103044.41;5058424;28;20503;-77
2021/04/14 07:17:30;;;;;;;11.02;2.05;;;;;;;4.12;77.41;103038.91;5058965;28;20071;-76
2021/04/14 07:20:19;;;;;;;12.48;2.10;;;;;;;4.38;78.37;103043.25;5024717;28;20055;-77
2021/04/14 07:23:11;;;;;;;14.65;2.63;;;;;;;4.20;78.37;103035.19;5060321;28;20048;-76
2021/04/14 07:25:59;;;;;;;20.65;2.13;;;;;;;4.52;75.56;103042.81;5029202;28;20079;-76
2021/04/14 07:28:52;;;;;;;13.85;2.42;;;;;;;4.83;75.46;103040.88;5017163;28;20116;-76
2021/04/14 07:31:24;;;;;;;;;;;;;;;5.40;73.04;103028.44;5020484;28;20043;-77
2021/04/14 07:34:05;;;;;;;13.43;1.80;;;;;;;5.74;73.56;103024.56;5042401;28;20031;-78
2021/04/14 07:36:36;;;;;;;11.07;2.00;;;;;;;5.81;70.05;103025.19;5052146;28;20338;-77
2021/04/14 07:39:12;;;;;;;10.38;1.77;;;;;;;5.52;69.68;103029.75;5051082;28;20040;-79
2021/04/14 07:41:59;;;;;;;14.40;1.90;;;;;;;5.42;71.32;103031.81;5061849;28;20048;-77
2021/04/14 07:44:44;;;;;;;15.00;2.15;;;;;;;5.32;69.62;103030.47;5017157;28;20056;-78
2021/04/14 07:47:13;;;;;;;10.82;1.63;;;;;;;5.39;68.98;103024.16;5039761;28;20414;-78
2021/04/14 07:49:42;;;;;;;11.85;1.80;;;;;;;5.47;68.92;103021.25;4988626;28;20572;-76
2021/04/14 07:52:12;;;;;;;11.35;2.38;;;;;;;5.68;70.83;103008.34;5038650;28;20045;-76
2021/04/14 07:54:43;;;;;;;13.43;1.77;;;;;;;5.44;68.57;103017.03;5056652;28;20489;-76
2021/04/14 07:57:09;;;;;;;8.98;2.08;;;;;;;5.28;69.10;103015.88;5045206;28;20044;-76
2021/04/14 07:59:39;;;;;;;9.25;1.33;;;;;;;5.26;69.77;103013.34;5026629;28;20064;-77
2021/04/14 08:02:09;;;;;;;11.00;1.52;;;;;;;5.72;70.34;103013.34;5057591;28;20067;-76
2021/04/14 08:04:36;;;;;;;13.55;1.80;;;;;;;6.09;68.84;103013.72;5024660;28;20052;-76
2021/04/14 08:07:23;;;;;;;10.02;1.38;;;;;;;5.96;65.45;103015.94;5025025;28;20044;-77
2021/04/14 08:09:58;;;;;;;10.60;1.35;;;;;;;5.76;64.54;103008.88;5011107;28;20067;-77
2021/04/14 08:12:25;;;;;;;11.40;1.55;;;;;;;6.17;69.68;103015.09;5010533;28;20041;-77
2021/04/14 08:14:50;;;;;;;15.40;2.00;;;;;;;6.27;66.41;103010.34;5046182;28;20144;-76
2021/04/14 08:17:21;;;;;;;8.38;1.40;;;;;;;6.12;65.84;103010.97;5011842;28;20139;-76
2021/04/14 08:19:57;;;;;;;12.40;1.60;;;;;;;6.04;64.91;103004.28;5004706;28;20045;-76
2021/04/14 08:22:24;;;;;;;12.90;1.80;;;;;;;5.76;65.46;103007.09;5021861;28;20502;-76
2021/04/14 08:24:54;;;;;;;6.65;1.30;;;;;;;5.67;67.96;103015.31;5005482;28;20045;-76
2021/04/14 08:27:33;;;;;;;7.50;1.42;;;;;;;5.49;69.68;103009.03;5025165;28;20064;-76
2021/04/14 08:30:01;;;;;;;6.70;1.30;;;;;;;5.44;68.57;103026.56;5018093;28;20049;-76
2021/04/14 08:32:48;;;;;;;13.05;2.35;;;;;;;5.18;70.64;103017.97;5040595;28;20109;-76
2021/04/14 08:35:31;;;;;;;10.05;1.88;;;;;;;4.94;71.13;103014.50;5025285;28;20049;-75
2021/04/14 08:38:28;;;;;;;9.60;1.52;;;;;;;4.84;71.23;103028.72;5007869;28;20037;-76
2021/04/14 08:40:57;;;;;;;13.13;1.60;;;;;;;4.58;70.83;103024.44;5057542;28;20049;-76
2021/04/14 08:43:40;;;;;;;5.93;1.58;;;;;;;4.58;72.25;103027.03;5033551;28;20103;-76
2021/04/14 08:46:10;;;;;;;6.75;1.55;;;;;;;4.99;73.13;103024.72;5028817;28;20053;-77
2021/04/14 08:48:37;;;;;;;13.15;1.65;;;;;;;5.50;71.36;103022.88;5030748;28;20117;-79
2021/04/14 08:51:04;;;;;;;6.72;1.63;;;;;;;5.77;67.67;103027.06;5010624;28;20251;-80
2021/04/14 08:53:41;;;;;;;6.95;1.23;;;;;;;5.89;67.96;103024.88;5045072;28;20056;-78
2021/04/14 08:56:08;;;;;;;9.13;1.50;;;;;;;6.09;65.13;103018.91;5027808;28;20087;-76
2021/04/14 08:58:34;;;;;;;10.57;1.42;;;;;;;6.47;66.38;103017.34;5045648;28;20043;-78
2021/04/14 09:01:00;;;;;;;6.60;1.30;;;;;;;6.78;65.33;103022.13;5027288;28;20143;-75
2021/04/14 09:03:31;;;;;;;8.50;1.17;;;;;;;7.18;66.92;103017.75;5038025;28;20037;-75
2021/04/14 09:05:57;;;;;;;7.95;1.60;;;;;;;7.09;61.91;103019.94;5044267;28;20132;-77
2021/04/14 09:08:29;;;;;;;9.05;1.50;;;;;;;7.26;62.28;103011.34;5006858;28;20132;-76
2021/04/14 09:11:03;;;;;;;9.85;1.63;;;;;;;7.12;62.59;103011.94;5047085;28;20152;-77
2021/04/14 09:13:43;;;;;;;9.30;1.50;;;;;;;7.20;60.95;103013.31;5043718;28;20072;-76
2021/04/14 09:16:10;;;;;;;8.40;1.40;;;;;;;7.34;61.40;103007.44;5057502;28;20526;-75
2021/04/14 09:18:39;;;;;;;8.45;1.25;;;;;;;7.35;56.74;103003.94;5081012;28;20055;-77
2021/04/14 09:21:07;;;;;;;7.80;1.23;;;;;;;7.79;56.30;103008.84;5063069;28;20059;-77
2021/04/14 09:23:38;;;;;;;9.80;1.20;;;;;;;7.88;58.68;102998.91;5047093;28;20041;-78
2021/04/14 09:26:14;;;;;;;5.53;1.30;;;;;;;8.41;56.55;103012.88;5053540;28;20040;-76
2021/04/14 09:28:45;;;;;;;9.23;1.50;;;;;;;8.27;56.18;103009.19;5011451;28;20057;-77
2021/04/14 09:31:39;;;;;;;7.88;1.45;;;;;;;7.70;56.58;103006.66;5026405;28;20053;-77
2021/04/14 09:34:34;;;;;;;6.60;1.40;;;;;;;7.85;57.95;103007.72;5010916;28;20040;-77
2021/04/14 09:37:27;;;;;;;10.52;1.38;;;;;;;7.93;58.04;102999.50;5044557;28;20069;-77
2021/04/14 09:39:59;;;;;;;7.63;1.33;;;;;;;8.20;54.01;103002.56;5023862;28;20094;-76
2021/04/14 09:42:24;;;;;;;6.38;0.90;;;;;;;8.18;52.77;103001.78;5058955;28;20095;-77
2021/04/14 09:44:56;;;;;;;10.30;1.65;;;;;;;8.69;55.08;103010.56;5042245;28;20056;-77
2021/04/14 09:47:25;;;;;;;8.70;1.25;;;;;;;8.64;51.78;102999.50;5042788;28;20045;-78
2021/04/14 09:49:53;;;;;;;7.57;1.35;;;;;;;8.08;54.20;102997.91;5010441;28;20070;-74
2021/04/14 09:52:30;;;;;;;7.28;1.27;;;;;;;7.73;54.30;103008.31;5026598;28;20053;-78
2021/04/14 09:55:15;;;;;;;11.10;1.40;;;;;;;7.52;53.40;102984.03;5059241;28;20510;-76
2021/04/14 09:57:45;;;;;;;5.50;1.30;;;;;;;7.13;55.91;103000.59;5019538;28;20127;-77
2021/04/14 10:00:32;;;;;;;8.65;1.33;;;;;;;7.25;55.19;103002.66;5058433;28;20037;-76
2021/04/14 10:03:07;;;;;;;6.88;1.10;;;;;;;6.95;56.40;102999.66;5056865;28;20036;-77
2021/04/14 10:05:33;;;;;;;8.98;1.33;;;;;;;6.92;54.78;103003.25;5036566;28;20060;-76
2021/04/14 10:08:01;;;;;;;6.68;1.30;;;;;;;7.25;54.20;102997.44;5043731;28;20075;-78
2021/04/14 10:10:27;;;;;;;7.95;1.30;;;;;;;7.46;54.03;102993.00;5059243;28;20077;-75
2021/04/14 10:12:53;;;;;;;6.97;1.30;;;;;;;7.86;54.57;102987.66;5026178;28;20051;-78
2021/04/14 10:15:31;;;;;;;8.32;1.70;;;;;;;8.43;50.43;102988.34;5026084;28;20045;-77
2021/04/14 10:18:43;;;;;;;8.23;1.27;;;;;;;8.47;50.32;102996.91;4994361;28;20049;-76
2021/04/14 10:21:18;;;;;;;10.90;1.40;;;;;;;8.10;50.23;102981.25;5006284;28;20059;-74
2021/04/14 10:23:44;;;;;;;5.50;1.20;;;;;;;7.81;52.24;102982.66;5027820;28;20049;-77
2021/04/14 10:26:12;;;;;;;7.30;1.35;;;;;;;7.73;51.97;102971.72;5054664;28;20052;-76
2021/04/14 10:28:41;;;;;;;5.38;1.33;;;;;;;7.45;51.15;102974.81;5039472;28;20041;-76
2021/04/14 10:31:11;;;;;;;4.50;1.20;;;;;;;7.19;52.76;102976.84;5039861;28;20045;-75
2021/04/14 10:33:39;;;;;;;4.53;1.15;;;;;;;7.66;52.43;102967.72;5044071;28;20041;-77
2021/04/14 10:36:20;;;;;;;4.00;1.00;;;;;;;8.05;49.39;102966.72;5040098;28;20045;-76
2021/04/14 10:38:46;;;;;;;4.40;1.10;;;;;;;8.84;48.49;102969.69;5043548;28;20041;-78
2021/04/14 10:41:13;;;;;;;5.13;1.17;;;;;;;9.17;45.55;102966.19;5012215;28;20055;-78
2021/04/14 10:43:38;;;;;;;3.28;1.00;;;;;;;9.16;46.79;102947.00;5046721;28;20513;-77
2021/04/14 10:46:27;;;;;;;5.10;0.75;;;;;;;9.32;42.58;102947.03;5031750;28;20510;-77
2021/04/14 10:48:59;;;;;;;5.25;1.00;;;;;;;9.37;44.15;102949.41;5045861;28;20899;-76
2021/04/14 10:51:37;;;;;;;6.00;1.15;;;;;;;8.85;43.76;102950.41;5061399;28;20044;-76
2021/04/14 10:54:09;;;;;;;5.45;1.10;;;;;;;8.46;44.62;102946.34;5047030;28;20491;-78
2021/04/14 10:56:34;;;;;;;4.28;1.30;;;;;;;8.30;43.43;102941.03;5010833;28;20045;-78
2021/04/14 10:59:07;;;;;;;6.40;1.10;;;;;;;8.26;47.14;102951.72;5028381;28;20094;-78
2021/04/14 11:01:38;;;;;;;5.60;1.10;;;;;;;8.38;45.36;102949.34;5061482;28;20033;-77
2021/04/14 11:04:16;;;;;;;5.97;0.90;;;;;;;8.56;46.13;102944.94;5045777;28;20045;-79
2021/04/14 11:06:44;;;;;;;5.07;0.80;;;;;;;9.20;45.47;102934.59;5044910;28;20067;-76
2021/04/14 11:09:11;;;;;;;8.40;0.80;;;;;;;9.54;45.34;102935.34;5028815;28;20136;-77
2021/04/14 11:11:39;;;;;;;4.20;1.23;;;;;;;9.13;46.95;102944.56;5052239;28;20053;-77
2021/04/14 11:14:10;;;;;;;8.88;1.00;;;;;;;9.44;48.60;102927.19;5023515;28;20056;-78
2021/04/14 11:16:38;;;;;;;3.13;1.27;;;;;;;9.77;47.60;102934.06;5028893;28;20044;-77
2021/04/14 11:19:18;;;;;;;6.60;1.10;;;;;;;10.12;44.82;102934.63;4996531;28;20056;-79
2021/04/14 11:21:44;;;;;;;5.00;0.98;;;;;;;9.62;47.15;102940.16;5061142;28;20033;-77
2021/04/14 11:24:14;;;;;;;5.53;1.10;;;;;;;9.88;46.04;102936.06;5063046;28;20041;-78
2021/04/14 11:26:50;;;;;;;4.28;1.08;;;;;;;9.41;46.80;102936.97;5044106;28;20554;-77
2021/04/14 11:29:25;;;;;;;3.45;0.85;;;;;;;9.71;44.83;102937.88;5040922;28;20051;-76
2021/04/14 11:31:53;;;;;;;5.65;0.93;;;;;;;9.39;43.66;102928.34;5044264;28;20045;-78
2021/04/14 11:34:23;;;;;;;5.93;1.13;;;;;;;10.19;46.10;102932.50;5045806;28;20143;-76
2021/04/14 11:37:04;;;;;;;3.80;0.90;;;;;;;10.94;40.56;102940.25;5011786;28;20040;-78
2021/04/14 11:39:50;;;;;;;5.57;1.15;;;;;;;10.70;39.78;102924.25;5027486;28;20155;-79